Time;durP1;ratioP1;P1;durP2;ratioP2;P2;SDS_P1;SDS_P2;PMS_P1;PMS_P2;Temp;Humidity;BMP_temperature;BMP_pressure;BME280_temperature;BME280_humidity;BME280_pressure;Samples;Min_cycle;Max_cycle;Signal;HPM_P1;HPM_P2
2022/12/23 00:02:01;;;;;;;0.00;0.00;;;;;;;;;;5064328;28;20626;-73
2022/12/23 00:04:28;;;;;;;0.10;0.10;;;;;;;;;;5060285;28;20690;-73
2022/12/23 00:06:55;;;;;;;0.10;0.10;;;;;;;;;;5056054;28;20660;-73
2022/12/23 00:09:24;;;;;;;0.03;0.03;;;;;;;;;;5054032;28;20634;-73
2022/12/23 00:17:17;;;;;;;0.10;0.10;;;;;;;;;;5050353;28;20659;-72
2022/12/23 00:19:44;;;;;;;0.03;0.03;;;;;;;;;;5057996;28;20656;-74
2022/12/23 00:22:11;;;;;;;0.00;0.00;;;;;;;;;;5071470;28;20711;-74
2022/12/23 00:24:40;;;;;;;0.00;0.00;;;;;;;;;;5054709;28;20656;-75
2022/12/23 00:27:07;;;;;;;0.00;0.00;;;;;;;;;;5071040;28;20684;-75
2022/12/23 00:29:34;;;;;;;0.10;0.10;;;;;;;;;;5057193;28;20628;-76
2022/12/23 00:32:05;;;;;;;0.00;0.00;;;;;;;;;;5053989;28;20620;-76
2022/12/23 00:34:32;;;;;;;0.00;0.00;;;;;;;;;;5056378;28;20632;-76
2022/12/23 00:37:01;;;;;;;0.10;0.10;;;;;;;;;;5058727;28;20660;-75
2022/12/23 00:45:14;;;;;;;0.10;0.10;;;;;;;;;;5067809;28;20631;-74
2022/12/23 00:50:26;;;;;;;0.10;0.10;;;;;;;;;;5075320;28;20600;-72
2022/12/23 00:52:53;;;;;;;0.00;0.00;;;;;;;;;;5058395;28;20662;-72
2022/12/23 00:55:20;;;;;;;0.10;0.10;;;;;;;;;;5055521;28;20651;-73
2022/12/23 00:57:49;;;;;;;0.10;0.10;;;;;;;;;;5057335;28;20617;-73
2022/12/23 01:00:16;;;;;;;0.10;0.10;;;;;;;;;;5066955;28;20621;-73
2022/12/23 01:05:37;;;;;;;0.10;0.10;;;;;;;;;;5071802;28;20646;-73
2022/12/23 01:08:05;;;;;;;0.10;0.10;;;;;;;;;;5054233;28;20673;-73
2022/12/23 01:10:32;;;;;;;0.00;0.00;;;;;;;;;;5056216;28;20662;-73
2022/12/23 01:13:01;;;;;;;0.10;0.10;;;;;;;;;;5073302;28;20636;-73
2022/12/23 01:15:28;;;;;;;0.10;0.10;;;;;;;;;;5073355;28;20659;-73
2022/12/23 01:17:55;;;;;;;0.10;0.10;;;;;;;;;;5070952;28;20651;-73
2022/12/23 01:20:22;;;;;;;0.10;0.10;;;;;;;;;;5053526;28;20621;-73
2022/12/23 01:22:50;;;;;;;0.10;0.10;;;;;;;;;;5057766;28;20631;-73
2022/12/23 01:25:17;;;;;;;0.10;0.10;;;;;;;;;;5055054;28;20674;-73
2022/12/23 01:27:44;;;;;;;0.10;0.10;;;;;;;;;;5055890;28;20669;-73
2022/12/23 01:30:13;;;;;;;0.00;0.00;;;;;;;;;;5073556;28;20615;-73
2022/12/23 01:32:40;;;;;;;0.10;0.10;;;;;;;;;;5054602;28;20708;-73
2022/12/23 01:35:08;;;;;;;0.10;0.10;;;;;;;;;;5049306;28;20629;-74
2022/12/23 01:37:35;;;;;;;0.10;0.10;;;;;;;;;;5051839;28;20616;-74
2022/12/23 01:40:03;;;;;;;0.10;0.10;;;;;;;;;;5052424;28;20723;-74
2022/12/23 01:42:46;;;;;;;0.10;0.10;;;;;;;;;;5055138;28;20627;-73
2022/12/23 01:45:20;;;;;;;0.03;0.03;;;;;;;;;;5064390;28;20682;-73
2022/12/23 01:47:50;;;;;;;0.00;0.00;;;;;;;;;;5054459;28;20658;-73
2022/12/23 01:50:20;;;;;;;0.10;0.10;;;;;;;;;;5054686;28;20621;-73
2022/12/23 01:52:50;;;;;;;0.00;0.00;;;;;;;;;;5058133;28;20651;-73
2022/12/23 01:55:19;;;;;;;0.00;0.00;;;;;;;;;;5065731;28;20617;-73
2022/12/23 01:57:47;;;;;;;0.10;0.10;;;;;;;;;;5053811;28;20731;-73
2022/12/23 02:05:47;;;;;;;0.10;0.10;;;;;;;;;;5047966;28;20660;-72
2022/12/23 02:11:12;;;;;;;0.10;0.10;;;;;;;;;;5047638;28;20623;-73
2022/12/23 02:16:15;;;;;;;0.10;0.10;;;;;;;;;;5068780;28;20635;-73
2022/12/23 02:16:37;;;;;;;0.10;0.10;;;;;;;;;;5056405;28;20676;-73
2022/12/23 02:19:14;;;;;;;0.10;0.10;;;;;;;;;;5065521;28;20633;-73
2022/12/23 02:21:55;;;;;;;0.10;0.10;;;;;;;;;;5067468;28;20631;-73
2022/12/23 02:24:31;;;;;;;0.10;0.10;;;;;;;;;;5071922;28;20656;-73
2022/12/23 02:27:19;;;;;;;0.10;0.10;;;;;;;;;;5054692;28;20658;-73
2022/12/23 02:30:07;;;;;;;0.10;0.10;;;;;;;;;;5058568;28;20724;-73
2022/12/23 02:32:42;;;;;;;0.10;0.10;;;;;;;;;;5066286;28;20624;-73
2022/12/23 02:35:13;;;;;;;0.10;0.10;;;;;;;;;;5071088;28;20705;-73
2022/12/23 02:37:44;;;;;;;0.10;0.10;;;;;;;;;;5054522;28;20642;-73
2022/12/23 02:40:14;;;;;;;0.00;0.00;;;;;;;;;;5051686;28;20628;-74
2022/12/23 02:42:45;;;;;;;0.10;0.10;;;;;;;;;;5053463;28;20632;-74
2022/12/23 02:45:15;;;;;;;0.00;0.00;;;;;;;;;;5051669;28;20625;-74
2022/12/23 02:47:47;;;;;;;0.00;0.00;;;;;;;;;;5066434;28;20706;-74
2022/12/23 02:50:15;;;;;;;0.00;0.00;;;;;;;;;;5065408;28;20624;-74
2022/12/23 02:52:44;;;;;;;0.10;0.10;;;;;;;;;;5050983;28;20657;-74
2022/12/23 02:55:14;;;;;;;0.10;0.10;;;;;;;;;;5057437;28;20664;-74
2022/12/23 02:57:44;;;;;;;0.10;0.10;;;;;;;;;;5054962;28;20689;-73
2022/12/23 03:00:12;;;;;;;0.10;0.10;;;;;;;;;;5064047;28;20652;-73
2022/12/23 03:02:41;;;;;;;0.10;0.10;;;;;;;;;;5056304;28;20623;-73
2022/12/23 03:08:04;;;;;;;0.10;0.10;;;;;;;;;;5114112;27;21384;-66
2022/12/23 03:10:35;;;;;;;0.10;0.10;;;;;;;;;;5111485;27;20734;-66
2022/12/23 03:13:07;;;;;;;0.10;0.10;;;;;;;;;;5108043;28;20607;-66
2022/12/23 03:15:38;;;;;;;0.00;0.00;;;;;;;;;;5109661;28;20670;-66
2022/12/23 03:18:12;;;;;;;0.00;0.00;;;;;;;;;;5109841;28;20687;-66
2022/12/23 03:20:42;;;;;;;0.10;0.10;;;;;;;;;;5111294;28;20633;-66
2022/12/23 03:23:18;;;;;;;0.00;0.00;;;;;;;;;;5108644;28;20627;-66
2022/12/23 03:25:48;;;;;;;0.10;0.10;;;;;;;;;;5109993;28;20681;-66
2022/12/23 03:28:18;;;;;;;0.10;0.10;;;;;;;;;;5110101;28;20722;-66
2022/12/23 03:30:48;;;;;;;0.10;0.10;;;;;;;;;;5110899;28;20711;-66
2022/12/23 03:33:17;;;;;;;0.10;0.10;;;;;;;;;;5107756;28;20627;-66
2022/12/23 03:35:47;;;;;;;0.10;0.10;;;;;;;;;;5107600;28;20690;-67
2022/12/23 03:38:18;;;;;;;0.10;0.10;;;;;;;;;;5111172;28;20664;-68
2022/12/23 03:40:48;;;;;;;0.00;0.00;;;;;;;;;;5106510;28;20630;-67
2022/12/23 03:43:18;;;;;;;0.10;0.10;;;;;;;;;;5110287;28;20623;-68
2022/12/23 03:45:49;;;;;;;0.10;0.10;;;;;;;;;;5109918;28;20701;-68
2022/12/23 03:48:20;;;;;;;0.10;0.10;;;;;;;;;;5106989;28;20654;-68
2022/12/23 03:50:49;;;;;;;0.10;0.10;;;;;;;;;;5110089;28;20631;-68
2022/12/23 03:53:21;;;;;;;0.07;0.07;;;;;;;;;;5112448;27;20661;-67
2022/12/23 03:55:52;;;;;;;0.00;0.00;;;;;;;;;;5108578;28;20674;-68
2022/12/23 03:58:25;;;;;;;0.00;0.00;;;;;;;;;;5108962;28;20599;-68
2022/12/23 04:00:55;;;;;;;0.03;0.03;;;;;;;;;;5109385;28;20620;-68
2022/12/23 04:03:23;;;;;;;0.10;0.10;;;;;;;;;;5107840;28;20606;-67
2022/12/23 04:05:53;;;;;;;0.10;0.10;;;;;;;;;;5127147;27;20778;-67
2022/12/23 04:08:23;;;;;;;0.10;0.10;;;;;;;;;;5110706;28;20614;-67
2022/12/23 04:10:51;;;;;;;0.00;0.00;;;;;;;;;;5110175;28;20718;-68
2022/12/23 04:13:18;;;;;;;0.10;0.10;;;;;;;;;;5107533;28;20686;-68
2022/12/23 04:15:45;;;;;;;0.10;0.10;;;;;;;;;;5109526;28;20763;-68
2022/12/23 04:18:12;;;;;;;0.10;0.10;;;;;;;;;;5101626;28;20607;-67
2022/12/23 04:20:40;;;;;;;0.10;0.10;;;;;;;;;;5094237;28;20712;-68
2022/12/23 04:23:07;;;;;;;0.00;0.00;;;;;;;;;;5096594;28;20696;-67
2022/12/23 04:25:35;;;;;;;0.10;0.10;;;;;;;;;;5093892;28;20687;-68
2022/12/23 04:28:02;;;;;;;0.10;0.10;;;;;;;;;;5095769;28;21198;-68
2022/12/23 04:30:29;;;;;;;0.10;0.10;;;;;;;;;;5096402;28;20639;-68
2022/12/23 04:32:56;;;;;;;0.00;0.00;;;;;;;;;;5093732;28;20695;-67
2022/12/23 04:35:23;;;;;;;0.00;0.00;;;;;;;;;;5097513;27;20740;-68
2022/12/23 04:37:50;;;;;;;0.00;0.00;;;;;;;;;;5095774;28;20623;-68
2022/12/23 04:40:18;;;;;;;0.10;0.10;;;;;;;;;;5095961;28;20611;-68
2022/12/23 04:42:46;;;;;;;0.10;0.10;;;;;;;;;;5094203;28;20618;-68
2022/12/23 04:45:13;;;;;;;0.10;0.10;;;;;;;;;;5094735;28;20781;-67
2022/12/23 04:47:41;;;;;;;0.10;0.10;;;;;;;;;;5094363;28;20655;-67
2022/12/23 04:50:08;;;;;;;0.10;0.10;;;;;;;;;;5095987;28;20694;-68
2022/12/23 04:52:35;;;;;;;0.10;0.10;;;;;;;;;;5092713;28;20653;-68
2022/12/23 04:55:02;;;;;;;0.10;0.10;;;;;;;;;;5092489;28;20682;-68
2022/12/23 04:57:30;;;;;;;0.00;0.00;;;;;;;;;;5097200;28;20639;-68
2022/12/23 04:59:58;;;;;;;0.10;0.10;;;;;;;;;;5094180;28;20619;-68
2022/12/23 05:02:25;;;;;;;0.00;0.00;;;;;;;;;;5094477;28;21082;-68
2022/12/23 05:04:52;;;;;;;0.00;0.00;;;;;;;;;;5094222;28;20742;-68
2022/12/23 05:07:19;;;;;;;0.10;0.10;;;;;;;;;;5094756;28;20648;-68
2022/12/23 05:09:46;;;;;;;0.00;0.00;;;;;;;;;;5093321;28;20619;-68
2022/12/23 05:12:13;;;;;;;0.00;0.00;;;;;;;;;;5092208;28;20614;-68
2022/12/23 05:14:41;;;;;;;0.10;0.10;;;;;;;;;;5093788;28;20603;-67
2022/12/23 05:17:09;;;;;;;0.00;0.00;;;;;;;;;;5092974;28;20660;-68
2022/12/23 05:19:36;;;;;;;0.00;0.00;;;;;;;;;;5094434;28;20733;-68
2022/12/23 05:22:03;;;;;;;0.00;0.00;;;;;;;;;;5090706;28;20711;-68
2022/12/23 05:24:30;;;;;;;0.10;0.10;;;;;;;;;;5094010;28;20710;-68
2022/12/23 05:26:57;;;;;;;0.07;0.07;;;;;;;;;;5094242;28;20695;-68
2022/12/23 05:29:24;;;;;;;0.00;0.00;;;;;;;;;;5093114;28;20620;-67
2022/12/23 05:31:52;;;;;;;0.00;0.00;;;;;;;;;;5096462;28;20633;-68
2022/12/23 05:34:20;;;;;;;0.10;0.10;;;;;;;;;;5093364;28;20635;-67
2022/12/23 05:36:47;;;;;;;0.00;0.00;;;;;;;;;;5095781;28;20740;-67
2022/12/23 05:39:14;;;;;;;0.00;0.00;;;;;;;;;;5094137;28;20722;-68
2022/12/23 05:41:41;;;;;;;0.00;0.00;;;;;;;;;;5092597;28;20627;-68
2022/12/23 05:44:09;;;;;;;0.10;0.10;;;;;;;;;;5095637;28;20702;-68
2022/12/23 05:46:36;;;;;;;0.00;0.00;;;;;;;;;;5091892;28;20658;-68
2022/12/23 05:49:03;;;;;;;0.00;0.00;;;;;;;;;;5091501;28;20707;-68
2022/12/23 05:51:31;;;;;;;0.00;0.00;;;;;;;;;;5091751;28;20615;-68
2022/12/23 05:53:58;;;;;;;0.10;0.10;;;;;;;;;;5092949;28;20726;-69
2022/12/23 05:56:26;;;;;;;0.10;0.10;;;;;;;;;;5093531;28;20670;-69
2022/12/23 05:58:53;;;;;;;0.10;0.10;;;;;;;;;;5091913;28;20718;-69
2022/12/23 06:01:20;;;;;;;0.10;0.10;;;;;;;;;;5091271;28;20726;-70
2022/12/23 06:03:47;;;;;;;0.10;0.10;;;;;;;;;;5091236;28;20614;-70
2022/12/23 06:06:14;;;;;;;0.10;0.10;;;;;;;;;;5089876;28;20659;-69
2022/12/23 06:08:43;;;;;;;0.00;0.00;;;;;;;;;;5094440;28;20751;-70
2022/12/23 06:11:11;;;;;;;0.10;0.10;;;;;;;;;;5092142;28;20614;-69
2022/12/23 06:13:38;;;;;;;0.10;0.10;;;;;;;;;;5091421;28;20627;-69
2022/12/23 06:16:06;;;;;;;0.00;0.00;;;;;;;;;;5092998;28;20650;-69
2022/12/23 06:18:33;;;;;;;0.00;0.00;;;;;;;;;;5094220;28;20615;-69
2022/12/23 06:21:00;;;;;;;0.00;0.00;;;;;;;;;;5091209;28;20698;-70
2022/12/23 06:23:27;;;;;;;0.10;0.10;;;;;;;;;;5093316;28;20616;-69
2022/12/23 06:26:00;;;;;;;0.10;0.10;;;;;;;;;;5089765;28;20638;-69
2022/12/23 06:28:28;;;;;;;0.10;0.10;;;;;;;;;;5092822;28;20738;-70
2022/12/23 06:30:55;;;;;;;0.10;0.10;;;;;;;;;;5094057;28;20612;-69
2022/12/23 06:33:23;;;;;;;0.00;0.00;;;;;;;;;;5091253;28;20626;-68
2022/12/23 06:35:50;;;;;;;0.10;0.10;;;;;;;;;;5089371;28;20697;-68
2022/12/23 06:38:17;;;;;;;0.10;0.10;;;;;;;;;;5092355;28;20731;-68
2022/12/23 06:40:44;;;;;;;0.10;0.10;;;;;;;;;;5091198;28;21235;-68
2022/12/23 06:43:13;;;;;;;0.10;0.10;;;;;;;;;;5093942;28;20617;-68
2022/12/23 06:45:40;;;;;;;0.10;0.10;;;;;;;;;;5093080;28;20651;-68
2022/12/23 06:48:07;;;;;;;0.10;0.10;;;;;;;;;;5078498;28;20654;-68
2022/12/23 06:50:34;;;;;;;0.00;0.00;;;;;;;;;;5076734;28;20626;-68
2022/12/23 06:53:01;;;;;;;0.10;0.10;;;;;;;;;;5093650;28;20699;-68
2022/12/23 06:55:29;;;;;;;0.10;0.10;;;;;;;;;;5094851;28;20743;-69
2022/12/23 06:57:56;;;;;;;0.10;0.10;;;;;;;;;;5092352;28;20607;-68
2022/12/23 07:00:25;;;;;;;0.03;0.03;;;;;;;;;;5094290;28;20739;-68
2022/12/23 07:02:53;;;;;;;0.00;0.00;;;;;;;;;;5092871;28;20627;-68
2022/12/23 07:05:20;;;;;;;0.10;0.10;;;;;;;;;;5092600;28;20670;-68
2022/12/23 07:07:47;;;;;;;0.10;0.10;;;;;;;;;;5092581;28;20664;-68
2022/12/23 07:10:15;;;;;;;0.10;0.10;;;;;;;;;;5091980;28;20746;-68
2022/12/23 07:12:42;;;;;;;0.00;0.00;;;;;;;;;;5092731;28;20743;-68
2022/12/23 07:15:09;;;;;;;0.00;0.00;;;;;;;;;;5092610;28;20645;-67
2022/12/23 07:17:37;;;;;;;0.00;0.00;;;;;;;;;;5092176;28;20643;-66
2022/12/23 07:20:05;;;;;;;0.10;0.10;;;;;;;;;;5092471;28;20627;-66
2022/12/23 07:22:32;;;;;;;0.00;0.00;;;;;;;;;;5093727;28;20679;-66
2022/12/23 07:25:00;;;;;;;0.10;0.10;;;;;;;;;;5094470;28;20701;-66
2022/12/23 07:27:27;;;;;;;0.10;0.10;;;;;;;;;;5095342;28;20669;-66
2022/12/23 07:29:55;;;;;;;0.10;0.10;;;;;;;;;;5090084;28;20639;-66
2022/12/23 07:32:22;;;;;;;0.03;0.03;;;;;;;;;;5092080;28;20994;-67
2022/12/23 07:34:51;;;;;;;0.07;0.07;;;;;;;;;;5091354;28;20689;-66
2022/12/23 07:37:18;;;;;;;0.10;0.10;;;;;;;;;;5094067;28;20663;-67
2022/12/23 07:39:45;;;;;;;0.07;0.07;;;;;;;;;;5088513;28;20622;-68
2022/12/23 07:42:12;;;;;;;0.00;0.00;;;;;;;;;;5093809;28;20681;-67
2022/12/23 07:44:40;;;;;;;0.10;0.10;;;;;;;;;;5087451;28;20657;-67
2022/12/23 07:47:07;;;;;;;0.10;0.10;;;;;;;;;;5091880;28;20628;-67
2022/12/23 07:49:34;;;;;;;0.00;0.00;;;;;;;;;;5093589;28;20632;-67
2022/12/23 07:52:03;;;;;;;0.10;0.10;;;;;;;;;;5089498;28;20663;-67
2022/12/23 07:54:30;;;;;;;0.07;0.07;;;;;;;;;;5094046;28;20624;-67
2022/12/23 07:56:57;;;;;;;0.00;0.00;;;;;;;;;;5095103;28;20650;-67
2022/12/23 07:59:26;;;;;;;0.10;0.10;;;;;;;;;;5093533;28;20628;-67
2022/12/23 08:01:53;;;;;;;0.10;0.10;;;;;;;;;;5092650;28;20631;-67
2022/12/23 08:04:20;;;;;;;0.10;0.10;;;;;;;;;;5097340;28;20640;-68
2022/12/23 08:06:47;;;;;;;0.10;0.10;;;;;;;;;;5097432;28;20757;-67
2022/12/23 08:09:16;;;;;;;0.10;0.10;;;;;;;;;;5100795;28;20703;-68
2022/12/23 08:11:44;;;;;;;0.10;0.10;;;;;;;;;;5105125;28;21314;-68
2022/12/23 08:14:11;;;;;;;0.00;0.00;;;;;;;;;;5097104;28;20637;-67
2022/12/23 08:16:39;;;;;;;0.10;0.10;;;;;;;;;;5094143;28;20647;-68
2022/12/23 08:19:06;;;;;;;0.10;0.10;;;;;;;;;;5095005;27;20616;-68
2022/12/23 08:21:33;;;;;;;0.10;0.10;;;;;;;;;;5095393;28;21223;-68
2022/12/23 08:24:00;;;;;;;0.10;0.10;;;;;;;;;;5095817;28;20638;-68
2022/12/23 08:26:29;;;;;;;0.10;0.10;;;;;;;;;;5094440;28;20662;-67
2022/12/23 08:28:56;;;;;;;0.00;0.00;;;;;;;;;;5095864;28;20650;-68
2022/12/23 08:31:25;;;;;;;0.10;0.10;;;;;;;;;;5097788;28;20699;-67
2022/12/23 08:33:54;;;;;;;0.10;0.10;;;;;;;;;;5095915;28;20735;-67
2022/12/23 08:36:22;;;;;;;0.00;0.00;;;;;;;;;;5097315;27;20662;-67
2022/12/23 08:38:49;;;;;;;0.10;0.10;;;;;;;;;;5091565;28;20655;-67
2022/12/23 08:41:18;;;;;;;0.10;0.10;;;;;;;;;;5093536;28;20647;-67
2022/12/23 08:43:47;;;;;;;0.10;0.10;;;;;;;;;;5092636;28;20677;-67
2022/12/23 08:46:14;;;;;;;0.07;0.07;;;;;;;;;;5094125;28;20663;-67
2022/12/23 08:48:41;;;;;;;0.10;0.10;;;;;;;;;;5096780;27;20679;-67
2022/12/23 08:51:09;;;;;;;0.00;0.00;;;;;;;;;;5090359;28;20619;-67
2022/12/23 08:53:37;;;;;;;0.10;0.10;;;;;;;;;;5069895;28;20615;-68
2022/12/23 08:56:06;;;;;;;0.00;0.00;;;;;;;;;;5086064;28;20755;-68
2022/12/23 08:58:36;;;;;;;0.00;0.00;;;;;;;;;;5094378;28;21026;-67
2022/12/23 09:01:05;;;;;;;0.00;0.00;;;;;;;;;;5090678;28;20627;-67
2022/12/23 09:03:33;;;;;;;0.00;0.00;;;;;;;;;;5088365;28;20684;-67
2022/12/23 09:06:04;;;;;;;0.00;0.00;;;;;;;;;;5092672;28;20668;-67
2022/12/23 09:08:31;;;;;;;0.00;0.00;;;;;;;;;;5091181;28;20651;-67
2022/12/23 09:10:59;;;;;;;0.00;0.00;;;;;;;;;;5088105;28;20680;-67
2022/12/23 09:13:26;;;;;;;0.00;0.00;;;;;;;;;;5092062;28;20626;-66
2022/12/23 09:15:53;;;;;;;0.00;0.00;;;;;;;;;;5095266;28;20666;-67
2022/12/23 09:18:22;;;;;;;0.03;0.03;;;;;;;;;;5083576;28;20782;-67
2022/12/23 09:20:49;;;;;;;0.00;0.00;;;;;;;;;;5091930;28;20630;-68
2022/12/23 09:23:16;;;;;;;0.00;0.00;;;;;;;;;;5091465;28;20624;-67
2022/12/23 09:25:44;;;;;;;0.03;0.03;;;;;;;;;;5093045;28;20688;-67
2022/12/23 09:28:11;;;;;;;0.10;0.10;;;;;;;;;;5090842;28;20747;-67
2022/12/23 09:30:38;;;;;;;0.10;0.10;;;;;;;;;;5091589;28;20623;-67
2022/12/23 09:33:05;;;;;;;0.00;0.00;;;;;;;;;;5091491;28;20623;-68
2022/12/23 09:35:34;;;;;;;0.10;0.10;;;;;;;;;;5089500;28;20668;-68
2022/12/23 09:38:01;;;;;;;0.10;0.10;;;;;;;;;;5090498;28;20623;-67
2022/12/23 09:40:30;;;;;;;0.00;0.00;;;;;;;;;;5088917;28;20628;-68
2022/12/23 09:43:05;;;;;;;0.00;0.00;;;;;;;;;;5092467;28;20632;-67
2022/12/23 09:45:53;;;;;;;0.10;0.10;;;;;;;;;;5095571;28;20630;-68
2022/12/23 09:48:23;;;;;;;0.10;0.10;;;;;;;;;;5075491;28;21227;-69
2022/12/23 09:50:53;;;;;;;0.10;0.10;;;;;;;;;;5092475;28;20639;-69
2022/12/23 09:53:22;;;;;;;0.10;0.10;;;;;;;;;;5100801;27;20631;-68
2022/12/23 09:55:51;;;;;;;0.00;0.00;;;;;;;;;;5091315;28;20667;-66
2022/12/23 09:58:22;;;;;;;0.10;0.10;;;;;;;;;;5088186;28;20628;-66
2022/12/23 10:00:57;;;;;;;0.00;0.00;;;;;;;;;;5090217;28;20707;-66
2022/12/23 10:03:27;;;;;;;0.00;0.00;;;;;;;;;;5088729;28;20623;-66
2022/12/23 10:06:02;;;;;;;0.10;0.10;;;;;;;;;;5088632;28;20659;-66
2022/12/23 10:08:32;;;;;;;0.10;0.10;;;;;;;;;;5090617;28;20668;-66
2022/12/23 10:11:01;;;;;;;0.10;0.10;;;;;;;;;;5091834;28;21199;-66
2022/12/23 10:13:30;;;;;;;0.10;0.10;;;;;;;;;;5106618;27;20627;-66
2022/12/23 10:16:02;;;;;;;0.00;0.00;;;;;;;;;;5089051;28;20660;-66
2022/12/23 10:18:35;;;;;;;0.10;0.10;;;;;;;;;;5086753;28;20626;-66
2022/12/23 10:21:06;;;;;;;0.10;0.10;;;;;;;;;;5092557;28;20714;-67
2022/12/23 10:23:37;;;;;;;0.10;0.10;;;;;;;;;;5086910;28;20623;-67
2022/12/23 10:26:08;;;;;;;0.10;0.10;;;;;;;;;;5076428;28;20687;-66
2022/12/23 10:28:35;;;;;;;0.10;0.10;;;;;;;;;;5092083;28;21071;-66
2022/12/23 10:31:04;;;;;;;0.00;0.00;;;;;;;;;;5093959;28;20604;-66
2022/12/23 10:33:35;;;;;;;0.10;0.10;;;;;;;;;;5091758;28;20707;-66
2022/12/23 10:36:05;;;;;;;0.10;0.10;;;;;;;;;;5094503;28;20711;-66
2022/12/23 10:38:40;;;;;;;0.10;0.10;;;;;;;;;;5090341;28;20651;-66
2022/12/23 10:41:12;;;;;;;0.07;0.07;;;;;;;;;;5088457;28;20739;-66
2022/12/23 10:43:43;;;;;;;0.10;0.10;;;;;;;;;;5090253;28;20615;-67
2022/12/23 10:46:16;;;;;;;0.07;0.07;;;;;;;;;;5092131;28;20655;-66
2022/12/23 10:48:49;;;;;;;0.00;0.00;;;;;;;;;;5084715;28;20719;-66
2022/12/23 10:51:18;;;;;;;0.10;0.10;;;;;;;;;;5092674;28;20610;-66
2022/12/23 10:53:49;;;;;;;0.00;0.00;;;;;;;;;;5091503;28;20634;-66
2022/12/23 10:56:16;;;;;;;0.00;0.00;;;;;;;;;;5087662;28;20657;-66
2022/12/23 10:58:45;;;;;;;0.10;0.10;;;;;;;;;;5088843;28;20743;-67
2022/12/23 11:01:14;;;;;;;0.00;0.00;;;;;;;;;;5088111;28;20616;-67
2022/12/23 11:03:43;;;;;;;0.10;0.10;;;;;;;;;;5088152;28;20696;-68
2022/12/23 11:06:11;;;;;;;0.00;0.00;;;;;;;;;;5091414;28;20656;-66
2022/12/23 11:08:39;;;;;;;0.00;0.00;;;;;;;;;;5091247;28;20651;-67
2022/12/23 11:11:08;;;;;;;0.00;0.00;;;;;;;;;;5091410;28;20615;-67
2022/12/23 11:13:36;;;;;;;0.00;0.00;;;;;;;;;;5089881;28;20661;-67
2022/12/23 11:16:22;;;;;;;0.00;0.00;;;;;;;;;;5091188;28;20654;-67
2022/12/23 11:18:53;;;;;;;0.00;0.00;;;;;;;;;;5089664;28;20635;-67
2022/12/23 11:21:20;;;;;;;0.10;0.10;;;;;;;;;;5089923;28;20739;-67
2022/12/23 11:23:47;;;;;;;0.10;0.10;;;;;;;;;;5091798;28;20623;-67
2022/12/23 11:26:18;;;;;;;0.00;0.00;;;;;;;;;;5091213;28;20734;-67
2022/12/23 11:28:49;;;;;;;0.10;0.10;;;;;;;;;;5093115;28;20646;-67
2022/12/23 11:31:16;;;;;;;0.10;0.10;;;;;;;;;;5090910;28;20616;-67
2022/12/23 11:33:48;;;;;;;0.10;0.10;;;;;;;;;;5095174;28;20632;-67
2022/12/23 11:36:17;;;;;;;0.10;0.10;;;;;;;;;;5095846;28;21055;-67
2022/12/23 11:38:48;;;;;;;0.00;0.00;;;;;;;;;;5095599;28;20691;-67
2022/12/23 11:41:20;;;;;;;0.00;0.00;;;;;;;;;;5094571;28;20708;-67
2022/12/23 11:43:49;;;;;;;0.00;0.00;;;;;;;;;;5093206;28;21239;-68
2022/12/23 11:46:25;;;;;;;0.00;0.00;;;;;;;;;;5091969;28;20654;-67
2022/12/23 11:49:04;;;;;;;0.10;0.10;;;;;;;;;;5091518;28;20648;-68
2022/12/23 11:51:31;;;;;;;0.10;0.10;;;;;;;;;;5091454;28;20718;-68
2022/12/23 11:54:02;;;;;;;0.00;0.00;;;;;;;;;;5093753;28;20627;-67
2022/12/23 11:56:35;;;;;;;0.07;0.07;;;;;;;;;;5090393;28;20647;-67
2022/12/23 11:59:04;;;;;;;0.00;0.00;;;;;;;;;;5079348;28;20612;-68
2022/12/23 12:01:31;;;;;;;0.00;0.00;;;;;;;;;;5090026;28;21108;-67
2022/12/23 12:04:00;;;;;;;0.10;0.10;;;;;;;;;;5093075;28;20635;-68
2022/12/23 12:06:28;;;;;;;0.00;0.00;;;;;;;;;;5092641;28;20674;-68
2022/12/23 12:08:58;;;;;;;0.00;0.00;;;;;;;;;;5083989;28;20657;-68
2022/12/23 12:11:27;;;;;;;0.10;0.10;;;;;;;;;;5090911;28;20628;-68
2022/12/23 12:13:59;;;;;;;0.00;0.00;;;;;;;;;;5089216;28;20627;-67
2022/12/23 12:16:38;;;;;;;0.00;0.00;;;;;;;;;;5091170;28;20806;-68
2022/12/23 12:19:08;;;;;;;0.10;0.10;;;;;;;;;;5094643;28;20676;-68
2022/12/23 12:21:37;;;;;;;0.00;0.00;;;;;;;;;;5108793;27;20723;-68
2022/12/23 12:24:07;;;;;;;0.00;0.00;;;;;;;;;;5096242;28;20661;-68
2022/12/23 12:26:36;;;;;;;0.10;0.10;;;;;;;;;;5093213;28;20650;-68
2022/12/23 12:29:08;;;;;;;0.10;0.10;;;;;;;;;;5094739;28;20700;-68
2022/12/23 12:31:38;;;;;;;0.10;0.10;;;;;;;;;;5093668;28;20647;-68
2022/12/23 12:34:13;;;;;;;0.00;0.00;;;;;;;;;;5094997;28;20607;-68
2022/12/23 12:36:44;;;;;;;0.10;0.10;;;;;;;;;;5096834;28;20639;-68
2022/12/23 12:39:15;;;;;;;0.10;0.10;;;;;;;;;;5090392;28;20607;-67
2022/12/23 12:41:47;;;;;;;0.00;0.00;;;;;;;;;;5092062;28;20595;-69
2022/12/23 12:44:23;;;;;;;0.00;0.00;;;;;;;;;;5094084;28;20698;-66
2022/12/23 12:46:54;;;;;;;0.07;0.07;;;;;;;;;;5093236;28;20710;-67
2022/12/23 12:49:25;;;;;;;0.00;0.00;;;;;;;;;;5085386;28;20222;-66
2022/12/23 12:51:54;;;;;;;0.00;0.00;;;;;;;;;;5081676;28;20735;-67
2022/12/23 12:54:25;;;;;;;0.00;0.00;;;;;;;;;;5093266;28;20611;-67
2022/12/23 12:56:53;;;;;;;0.00;0.00;;;;;;;;;;5098342;27;20666;-67
2022/12/23 12:59:25;;;;;;;0.00;0.00;;;;;;;;;;5083121;28;20722;-67
2022/12/23 13:02:04;;;;;;;0.10;0.10;;;;;;;;;;5092421;28;20631;-67
2022/12/23 13:04:48;;;;;;;0.00;0.00;;;;;;;;;;5088673;28;20627;-67
2022/12/23 13:07:19;;;;;;;0.10;0.10;;;;;;;;;;5090692;28;20738;-67
2022/12/23 13:09:53;;;;;;;0.10;0.10;;;;;;;;;;5089395;28;20674;-68
2022/12/23 13:12:23;;;;;;;0.00;0.00;;;;;;;;;;5093799;28;20626;-68
2022/12/23 13:14:57;;;;;;;0.10;0.10;;;;;;;;;;5091212;28;20647;-67
2022/12/23 13:17:26;;;;;;;0.00;0.00;;;;;;;;;;5091145;28;20674;-67
2022/12/23 13:19:57;;;;;;;0.00;0.00;;;;;;;;;;5094789;28;20630;-67
2022/12/23 13:22:26;;;;;;;0.00;0.00;;;;;;;;;;5090254;28;20616;-67
2022/12/23 13:24:57;;;;;;;0.00;0.00;;;;;;;;;;5092138;28;20755;-68
2022/12/23 13:27:27;;;;;;;0.10;0.10;;;;;;;;;;5088026;28;20629;-67
2022/12/23 13:30:07;;;;;;;0.00;0.00;;;;;;;;;;5091440;28;20656;-67
2022/12/23 13:32:45;;;;;;;0.10;0.10;;;;;;;;;;5093846;27;20633;-67
2022/12/23 13:35:18;;;;;;;0.00;0.00;;;;;;;;;;5092681;28;20659;-67
2022/12/23 13:37:50;;;;;;;0.00;0.00;;;;;;;;;;5095214;28;20723;-68
2022/12/23 13:40:26;;;;;;;0.10;0.10;;;;;;;;;;5084492;28;20687;-67
2022/12/23 13:42:56;;;;;;;0.10;0.10;;;;;;;;;;5093574;28;20654;-66
2022/12/23 13:45:28;;;;;;;0.00;0.00;;;;;;;;;;5092793;28;20743;-67
2022/12/23 13:48:01;;;;;;;0.00;0.00;;;;;;;;;;5094258;28;20624;-67
2022/12/23 13:50:34;;;;;;;0.10;0.10;;;;;;;;;;5088825;28;20716;-67
2022/12/23 13:53:10;;;;;;;0.07;0.07;;;;;;;;;;5089585;28;20619;-67
2022/12/23 13:55:48;;;;;;;0.07;0.07;;;;;;;;;;5091259;28;20675;-67
2022/12/23 13:58:16;;;;;;;0.10;0.10;;;;;;;;;;5092733;28;20623;-67
2022/12/23 14:00:45;;;;;;;0.10;0.10;;;;;;;;;;5091849;28;20632;-67
2022/12/23 14:03:20;;;;;;;0.10;0.10;;;;;;;;;;5091628;28;20731;-67
2022/12/23 14:05:49;;;;;;;0.07;0.07;;;;;;;;;;5092338;28;20651;-68
2022/12/23 14:08:24;;;;;;;0.00;0.00;;;;;;;;;;5094355;28;20636;-67
2022/12/23 14:10:52;;;;;;;0.00;0.00;;;;;;;;;;5091253;28;20691;-67
2022/12/23 14:13:19;;;;;;;0.00;0.00;;;;;;;;;;5089987;28;20619;-67
2022/12/23 14:15:51;;;;;;;0.00;0.00;;;;;;;;;;5089285;28;20691;-67
2022/12/23 14:18:36;;;;;;;0.00;0.00;;;;;;;;;;5096341;28;20627;-67
2022/12/23 14:21:09;;;;;;;0.10;0.10;;;;;;;;;;5055690;28;20682;-67
2022/12/23 14:23:52;;;;;;;0.00;0.00;;;;;;;;;;5079500;28;20631;-68
2022/12/23 14:26:25;;;;;;;0.10;0.10;;;;;;;;;;5096375;28;21033;-67
2022/12/23 14:29:07;;;;;;;0.00;0.00;;;;;;;;;;5093623;28;20612;-67
2022/12/23 14:31:38;;;;;;;0.10;0.10;;;;;;;;;;5094417;28;20711;-67
2022/12/23 14:34:23;;;;;;;0.10;0.10;;;;;;;;;;5091803;28;20609;-67
2022/12/23 14:37:05;;;;;;;0.00;0.00;;;;;;;;;;5094311;28;20713;-67
2022/12/23 14:39:33;;;;;;;0.10;0.10;;;;;;;;;;5097076;28;20639;-67
2022/12/23 14:42:00;;;;;;;0.00;0.00;;;;;;;;;;5095035;28;20613;-68
2022/12/23 14:44:44;;;;;;;0.10;0.10;;;;;;;;;;5091347;28;20709;-68
2022/12/23 14:47:26;;;;;;;0.00;0.00;;;;;;;;;;5095261;28;20627;-67
2022/12/23 14:49:55;;;;;;;0.00;0.00;;;;;;;;;;5092681;28;20729;-67
2022/12/23 14:52:40;;;;;;;0.00;0.00;;;;;;;;;;5087340;28;20621;-68
2022/12/23 14:55:28;;;;;;;0.10;0.10;;;;;;;;;;5088306;28;21267;-67
2022/12/23 14:57:58;;;;;;;0.00;0.00;;;;;;;;;;5090499;28;20630;-67
2022/12/23 15:00:25;;;;;;;0.00;0.00;;;;;;;;;;5090328;28;20728;-67
2022/12/23 15:02:54;;;;;;;0.10;0.10;;;;;;;;;;5086827;28;20623;-67
2022/12/23 15:05:24;;;;;;;0.00;0.00;;;;;;;;;;5091208;28;20650;-67
2022/12/23 15:07:54;;;;;;;0.00;0.00;;;;;;;;;;5084100;28;20669;-67
2022/12/23 15:10:23;;;;;;;0.00;0.00;;;;;;;;;;5083325;28;20639;-67
2022/12/23 15:12:53;;;;;;;0.00;0.00;;;;;;;;;;5086804;28;20641;-68
2022/12/23 15:15:21;;;;;;;0.10;0.10;;;;;;;;;;5083957;28;20651;-68
2022/12/23 15:17:48;;;;;;;0.10;0.10;;;;;;;;;;5084427;28;20624;-67
2022/12/23 15:20:17;;;;;;;0.10;0.10;;;;;;;;;;5092103;28;20722;-68
2022/12/23 15:22:46;;;;;;;0.10;0.10;;;;;;;;;;5088389;28;20723;-68
2022/12/23 15:25:20;;;;;;;0.00;0.00;;;;;;;;;;5086825;28;20651;-68
2022/12/23 15:27:47;;;;;;;0.00;0.00;;;;;;;;;;5090973;28;20626;-68